createdAt,value
2017-01-23T00:00:06.932Z,73546
2017-01-23T00:00:15.625Z,73545
2017-01-23T00:00:24.291Z,73546
2017-01-23T00:00:32.957Z,73547
2017-01-23T00:00:41.607Z,73546
2017-01-23T00:00:50.295Z,73546
2017-01-23T00:00:58.997Z,73545
2017-01-23T00:01:07.674Z,73547
2017-01-23T00:01:16.357Z,73545
2017-01-23T00:01:25.018Z,73548
2017-01-23T00:01:33.683Z,73545
2017-01-23T00:01:42.349Z,73544
2017-01-23T00:01:51.027Z,73547
2017-01-23T00:01:59.695Z,73542
2017-01-23T00:02:08.371Z,73542
2017-01-23T00:02:17.024Z,73547
2017-01-23T00:02:25.693Z,73542
2017-01-23T00:02:34.380Z,73548
2017-01-23T00:02:43.056Z,73545
2017-01-23T00:02:51.725Z,73545
2017-01-23T00:03:00.398Z,73545
2017-01-23T00:03:09.055Z,73549
2017-01-23T00:03:17.736Z,73543
2017-01-23T00:03:26.401Z,73547
2017-01-23T00:03:35.054Z,73548
2017-01-23T00:03:43.736Z,73545
2017-01-23T00:03:52.432Z,73545
2017-01-23T00:04:01.092Z,73547
2017-01-23T00:04:09.779Z,73544
2017-01-23T00:04:18.432Z,73548
2017-01-23T00:04:27.107Z,73544
2017-01-23T00:04:35.788Z,73543
2017-01-23T00:04:44.477Z,73543
2017-01-23T00:04:53.152Z,73546
2017-01-23T00:05:01.839Z,73547
2017-01-23T00:05:10.521Z,73541
2017-01-23T00:05:19.181Z,73543
2017-01-23T00:05:27.840Z,73546
2017-01-23T00:05:36.510Z,73545
2017-01-23T00:05:45.177Z,73545
2017-01-23T00:05:53.861Z,73545
2017-01-23T00:06:02.528Z,73545
2017-01-23T00:06:11.210Z,73549
2017-01-23T00:06:19.880Z,73543
2017-01-23T00:06:28.578Z,73547
2017-01-23T00:06:37.239Z,73547
2017-01-23T00:06:45.913Z,73546
2017-01-23T00:06:54.567Z,73545
2017-01-23T00:07:03.229Z,73546
2017-01-23T00:07:11.917Z,73550
2017-01-23T00:07:20.582Z,73544
2017-01-23T00:07:29.243Z,73544
2017-01-23T00:07:37.912Z,73545
2017-01-23T00:07:46.606Z,73545
2017-01-23T00:07:55.267Z,73547
2017-01-23T00:08:03.915Z,73546
2017-01-23T00:08:12.596Z,73544
2017-01-23T00:08:21.264Z,73547
2017-01-23T00:08:29.937Z,73542
2017-01-23T00:08:38.628Z,73550
2017-01-23T00:08:47.291Z,73551
2017-01-23T00:08:55.982Z,73550
2017-01-23T00:09:04.673Z,73549
2017-01-23T00:09:13.321Z,73547
2017-01-23T00:09:21.986Z,73546
2017-01-23T00:09:30.658Z,73547
2017-01-23T00:09:39.336Z,73547
2017-01-23T00:09:48.022Z,73551
2017-01-23T00:09:56.695Z,73549
2017-01-23T00:10:05.393Z,73549
2017-01-23T00:10:14.055Z,73551
2017-01-23T00:10:22.736Z,73551
2017-01-23T00:10:31.445Z,73549
2017-01-23T00:10:40.107Z,73549
2017-01-23T00:10:48.759Z,73550
2017-01-23T00:10:57.415Z,73552
2017-01-23T00:11:06.104Z,73547
2017-01-23T00:11:14.781Z,73549
2017-01-23T00:11:23.448Z,73551
2017-01-23T00:11:32.124Z,73552
2017-01-23T00:11:40.807Z,73551
2017-01-23T00:11:49.844Z,73547
2017-01-23T00:11:58.498Z,73551
2017-01-23T00:12:07.147Z,73550
2017-01-23T00:12:15.811Z,73547
2017-01-23T00:12:24.483Z,73548
2017-01-23T00:12:33.539Z,73548
2017-01-23T00:12:42.205Z,73544
2017-01-23T00:12:50.872Z,73548
2017-01-23T00:12:59.518Z,73548
2017-01-23T00:13:08.190Z,73545
2017-01-23T00:13:16.877Z,73551
2017-01-23T00:13:25.563Z,73552
2017-01-23T00:13:34.233Z,73545
2017-01-23T00:13:42.915Z,73544
2017-01-23T00:13:51.592Z,73551
2017-01-23T00:14:00.256Z,73547
2017-01-23T00:14:08.918Z,73546
2017-01-23T00:14:17.600Z,73549
2017-01-23T00:14:26.317Z,73548
2017-01-23T00:14:34.982Z,73546
2017-01-23T00:14:43.666Z,73552
2017-01-23T00:14:52.322Z,73548
2017-01-23T00:15:00.976Z,73552
2017-01-23T00:15:09.641Z,73548
2017-01-23T00:15:18.316Z,73546
2017-01-23T00:15:26.993Z,73545
2017-01-23T00:15:35.686Z,73548
2017-01-23T00:15:44.350Z,73546
2017-01-23T00:15:53.030Z,73548
2017-01-23T00:16:01.696Z,73550
2017-01-23T00:16:10.367Z,73547
2017-01-23T00:16:19.031Z,73550
2017-01-23T00:16:27.701Z,73549
2017-01-23T00:16:36.372Z,73546
2017-01-23T00:16:45.046Z,73543
2017-01-23T00:16:53.698Z,73548
2017-01-23T00:17:02.358Z,73545
2017-01-23T00:17:11.033Z,73545
2017-01-23T00:17:19.710Z,73547
2017-01-23T00:17:28.373Z,73543
2017-01-23T00:17:37.027Z,73545
2017-01-23T00:17:45.707Z,73547
2017-01-23T00:17:54.390Z,73547
2017-01-23T00:18:03.069Z,73544
2017-01-23T00:18:11.738Z,73546
2017-01-23T00:18:20.409Z,73546
2017-01-23T00:18:29.092Z,73542
2017-01-23T00:18:37.768Z,73544
2017-01-23T00:18:46.413Z,73545
2017-01-23T00:18:55.095Z,73543
2017-01-23T00:19:03.788Z,73540
2017-01-23T00:19:12.440Z,73543
2017-01-23T00:19:21.094Z,73543
2017-01-23T00:19:29.775Z,73546
2017-01-23T00:19:38.460Z,73543
2017-01-23T00:19:47.123Z,73542
2017-01-23T00:19:55.811Z,73544
2017-01-23T00:20:04.849Z,73544
2017-01-23T00:20:13.521Z,73542
2017-01-23T00:20:22.185Z,73542
2017-01-23T00:20:30.863Z,73540
2017-01-23T00:20:39.527Z,73538
2017-01-23T00:20:48.208Z,73540
2017-01-23T00:20:56.893Z,73546
2017-01-23T00:21:05.559Z,73546
2017-01-23T00:21:14.236Z,73540
2017-01-23T00:21:22.903Z,73540
2017-01-23T00:21:31.557Z,73536
2017-01-23T00:21:40.230Z,73538
2017-01-23T00:21:48.903Z,73541
2017-01-23T00:21:57.563Z,73547
2017-01-23T00:22:06.236Z,73547
2017-01-23T00:22:14.919Z,73545
2017-01-23T00:22:23.574Z,73537
2017-01-23T00:22:32.227Z,73540
2017-01-23T00:22:40.886Z,73542
2017-01-23T00:22:49.592Z,73535
2017-01-23T00:22:58.264Z,73536
2017-01-23T00:23:06.951Z,73538
2017-01-23T00:23:15.622Z,73542
2017-01-23T00:23:24.287Z,73537
2017-01-23T00:23:32.996Z,73540
2017-01-23T00:23:41.683Z,73537
2017-01-23T00:23:50.358Z,73540
2017-01-23T00:23:59.029Z,73539
2017-01-23T00:24:07.710Z,73540
2017-01-23T00:24:16.379Z,73536
2017-01-23T00:24:25.068Z,73543
2017-01-23T00:24:33.722Z,73542
2017-01-23T00:24:42.390Z,73541
2017-01-23T00:24:51.064Z,73543
2017-01-23T00:24:59.732Z,73538
2017-01-23T00:25:08.426Z,73537
2017-01-23T00:25:17.119Z,73541
2017-01-23T00:25:25.793Z,73539
2017-01-23T00:25:34.448Z,73539
2017-01-23T00:25:43.100Z,73536
2017-01-23T00:25:51.764Z,73539
2017-01-23T00:26:00.431Z,73541
2017-01-23T00:26:09.099Z,73538
2017-01-23T00:26:17.769Z,73536
2017-01-23T00:26:26.436Z,73533
2017-01-23T00:26:35.089Z,73539
2017-01-23T00:26:43.759Z,73539
2017-01-23T00:26:52.435Z,73538
2017-01-23T00:27:01.110Z,73536
2017-01-23T00:27:09.802Z,73540
2017-01-23T00:27:18.470Z,73535
2017-01-23T00:27:27.133Z,73531
2017-01-23T00:27:35.820Z,73539
2017-01-23T00:27:44.480Z,73532
2017-01-23T00:27:53.128Z,73537
2017-01-23T00:28:01.803Z,73538
2017-01-23T00:28:10.472Z,73535
2017-01-23T00:28:19.140Z,73537
2017-01-23T00:28:27.830Z,73536
2017-01-23T00:28:36.508Z,73538
2017-01-23T00:28:45.176Z,73540
2017-01-23T00:28:53.848Z,73534
2017-01-23T00:29:02.884Z,73533
2017-01-23T00:29:11.555Z,73536
2017-01-23T00:29:20.268Z,73533
2017-01-23T00:29:28.946Z,73535
2017-01-23T00:29:37.629Z,73531
2017-01-23T00:29:46.300Z,73532
2017-01-23T00:29:54.978Z,73532
2017-01-23T00:30:03.662Z,73534
2017-01-23T00:30:12.357Z,73532
2017-01-23T00:30:21.027Z,73538
2017-01-23T00:30:29.700Z,73539
2017-01-23T00:30:38.355Z,73536
2017-01-23T00:30:47.009Z,73534
2017-01-23T00:30:55.665Z,73540
2017-01-23T00:31:04.320Z,73539
2017-01-23T00:31:13.006Z,73535
2017-01-23T00:31:21.694Z,73536
2017-01-23T00:31:30.358Z,73535
2017-01-23T00:31:39.041Z,73538
2017-01-23T00:31:47.711Z,73534
2017-01-23T00:31:56.376Z,73533
2017-01-23T00:32:05.052Z,73536
2017-01-23T00:32:13.746Z,73537
2017-01-23T00:32:22.421Z,73538
2017-01-23T00:32:31.087Z,73535
2017-01-23T00:32:39.754Z,73534
2017-01-23T00:32:48.418Z,73532
2017-01-23T00:32:57.085Z,73533
2017-01-23T00:33:05.757Z,73533
2017-01-23T00:33:14.427Z,73532
2017-01-23T00:33:23.093Z,73531
2017-01-23T00:33:31.773Z,73538
2017-01-23T00:33:40.446Z,73535
2017-01-23T00:33:49.101Z,73536
2017-01-23T00:33:57.747Z,73533
2017-01-23T00:34:06.419Z,73535
2017-01-23T00:34:15.104Z,73536
2017-01-23T00:34:23.772Z,73533
2017-01-23T00:34:32.441Z,73536
2017-01-23T00:34:41.121Z,73533
2017-01-23T00:34:49.782Z,73535
2017-01-23T00:34:58.469Z,73528
2017-01-23T00:35:07.131Z,73534
2017-01-23T00:35:15.788Z,73529
2017-01-23T00:35:24.448Z,73538
2017-01-23T00:35:33.139Z,73529
2017-01-23T00:35:41.825Z,73533
2017-01-23T00:35:50.480Z,73529
2017-01-23T00:35:59.160Z,73537
2017-01-23T00:36:07.837Z,73535
2017-01-23T00:36:16.503Z,73531
2017-01-23T00:36:25.151Z,73536
2017-01-23T00:36:33.812Z,73534
2017-01-23T00:36:42.481Z,73532
2017-01-23T00:36:51.153Z,73530
2017-01-23T00:36:59.852Z,73538
2017-01-23T00:37:08.523Z,73540
2017-01-23T00:37:17.197Z,73537
2017-01-23T00:37:25.842Z,73537
2017-01-23T00:37:34.862Z,73537
2017-01-23T00:37:43.521Z,73538
2017-01-23T00:37:52.216Z,73531
2017-01-23T00:38:00.885Z,73538
2017-01-23T00:38:09.565Z,73531
2017-01-23T00:38:18.229Z,73536
2017-01-23T00:38:26.925Z,73535
2017-01-23T00:38:35.605Z,73537
2017-01-23T00:38:44.268Z,73540
2017-01-23T00:38:52.963Z,73534
2017-01-23T00:39:01.643Z,73534
2017-01-23T00:39:10.328Z,73540
2017-01-23T00:39:19.020Z,73535
2017-01-23T00:39:27.699Z,73540
2017-01-23T00:39:36.362Z,73532
2017-01-23T00:39:45.028Z,73531
2017-01-23T00:39:53.709Z,73531
2017-01-23T00:40:02.396Z,73537
2017-01-23T00:40:11.060Z,73538
2017-01-23T00:40:19.749Z,73537
2017-01-23T00:40:28.411Z,73536
2017-01-23T00:40:37.090Z,73539
2017-01-23T00:40:45.779Z,73538
2017-01-23T00:40:54.454Z,73534
2017-01-23T00:41:03.129Z,73533
2017-01-23T00:41:11.807Z,73534
2017-01-23T00:41:20.493Z,73536
2017-01-23T00:41:29.191Z,73538
2017-01-23T00:41:37.864Z,73534
2017-01-23T00:41:46.520Z,73532
2017-01-23T00:41:55.177Z,73531
2017-01-23T00:42:03.835Z,73536
2017-01-23T00:42:12.489Z,73537
2017-01-23T00:42:21.151Z,73536
2017-01-23T00:42:29.834Z,73534
2017-01-23T00:42:38.496Z,73536
2017-01-23T00:42:47.173Z,73538
2017-01-23T00:42:55.823Z,73534
2017-01-23T00:43:04.494Z,73538
2017-01-23T00:43:13.190Z,73535
2017-01-23T00:43:21.864Z,73535
2017-01-23T00:43:30.543Z,73539
2017-01-23T00:43:39.223Z,73536
2017-01-23T00:43:47.905Z,73534
2017-01-23T00:43:56.587Z,73536
2017-01-23T00:44:05.250Z,73537
2017-01-23T00:44:13.927Z,73535
2017-01-23T00:44:22.590Z,73533
2017-01-23T00:44:31.256Z,73534
2017-01-23T00:44:39.934Z,73528
2017-01-23T00:44:48.587Z,73532
2017-01-23T00:44:57.275Z,73538
2017-01-23T00:45:05.959Z,73538
2017-01-23T00:45:14.626Z,73538
2017-01-23T00:45:23.309Z,73537
2017-01-23T00:45:31.981Z,73536
2017-01-23T00:45:40.643Z,73532
2017-01-23T00:45:49.315Z,73535
2017-01-23T00:45:57.982Z,73535
2017-01-23T00:46:06.647Z,73538
2017-01-23T00:46:15.302Z,73535
2017-01-23T00:46:23.975Z,73535
2017-01-23T00:46:32.638Z,73534
2017-01-23T00:46:41.304Z,73532
2017-01-23T00:46:49.973Z,73536
2017-01-23T00:46:58.636Z,73537
2017-01-23T00:47:07.289Z,73534
2017-01-23T00:47:15.938Z,73530
2017-01-23T00:47:24.609Z,73532
2017-01-23T00:47:33.315Z,73537
2017-01-23T00:47:41.978Z,73534
2017-01-23T00:47:50.637Z,73533
2017-01-23T00:47:59.322Z,73534
2017-01-23T00:48:08.352Z,73535
2017-01-23T00:48:17.023Z,73536
2017-01-23T00:48:25.701Z,73535
2017-01-23T00:48:34.384Z,73533
2017-01-23T00:48:43.056Z,73533
2017-01-23T00:48:51.734Z,73534
2017-01-23T00:49:00.404Z,73530
2017-01-23T00:49:09.081Z,73531
2017-01-23T00:49:17.753Z,73533
2017-01-23T00:49:26.405Z,73535
2017-01-23T00:49:35.071Z,73532
2017-01-23T00:49:43.754Z,73534
2017-01-23T00:49:52.417Z,73536
2017-01-23T00:50:01.098Z,73532
2017-01-23T00:50:09.790Z,73528
2017-01-23T00:50:18.488Z,73533
2017-01-23T00:50:27.144Z,73535
2017-01-23T00:50:35.814Z,73531
2017-01-23T00:50:44.487Z,73534
2017-01-23T00:50:53.510Z,73535
2017-01-23T00:51:02.182Z,73532
2017-01-23T00:51:10.878Z,73532
2017-01-23T00:51:19.546Z,73534
2017-01-23T00:51:28.223Z,73532
2017-01-23T00:51:36.879Z,73534
2017-01-23T00:51:45.572Z,73534
2017-01-23T00:51:54.231Z,73535
2017-01-23T00:52:02.886Z,73536
2017-01-23T00:52:11.588Z,73539
2017-01-23T00:52:20.271Z,73536
2017-01-23T00:52:28.949Z,73536
2017-01-23T00:52:37.635Z,73534
2017-01-23T00:52:46.300Z,73533
2017-01-23T00:52:55.007Z,73533
2017-01-23T00:53:03.678Z,73535
2017-01-23T00:53:12.334Z,73533
2017-01-23T00:53:21.043Z,73534
2017-01-23T00:53:29.692Z,73535
2017-01-23T00:53:38.353Z,73537
2017-01-23T00:53:47.029Z,73531
2017-01-23T00:53:55.681Z,73536
2017-01-23T00:54:04.377Z,73531
2017-01-23T00:54:13.056Z,73534
2017-01-23T00:54:21.727Z,73529
2017-01-23T00:54:30.391Z,73533
2017-01-23T00:54:39.067Z,73531
2017-01-23T00:54:47.721Z,73536
2017-01-23T00:54:56.399Z,73531
2017-01-23T00:55:05.079Z,73534
2017-01-23T00:55:13.749Z,73536
2017-01-23T00:55:22.402Z,73536
2017-01-23T00:55:31.086Z,73532
2017-01-23T00:55:39.745Z,73533
2017-01-23T00:55:48.406Z,73535
2017-01-23T00:55:57.079Z,73533
2017-01-23T00:56:06.139Z,73534
2017-01-23T00:56:14.832Z,73532
2017-01-23T00:56:23.498Z,73533
2017-01-23T00:56:32.190Z,73530
2017-01-23T00:56:40.857Z,73532
2017-01-23T00:56:49.518Z,73532
2017-01-23T00:56:58.176Z,73539
2017-01-23T00:57:06.841Z,73529
2017-01-23T00:57:15.502Z,73528
2017-01-23T00:57:24.168Z,73532
2017-01-23T00:57:32.838Z,73535
2017-01-23T00:57:41.500Z,73534
2017-01-23T00:57:50.167Z,73537
2017-01-23T00:57:58.848Z,73538
2017-01-23T00:58:07.527Z,73532
2017-01-23T00:58:16.202Z,73535
2017-01-23T00:58:24.874Z,73531
2017-01-23T00:58:33.536Z,73530
2017-01-23T00:58:42.203Z,73532
2017-01-23T00:58:50.902Z,73531
2017-01-23T00:58:59.553Z,73531
2017-01-23T00:59:08.253Z,73534
2017-01-23T00:59:16.910Z,73537
2017-01-23T00:59:25.574Z,73531
2017-01-23T00:59:34.233Z,73535
2017-01-23T00:59:43.269Z,73540
2017-01-23T00:59:51.949Z,73535
2017-01-23T01:00:00.612Z,73532
2017-01-23T01:00:09.278Z,73535
2017-01-23T01:00:17.965Z,73532
2017-01-23T01:00:26.638Z,73536
2017-01-23T01:00:35.319Z,73533
2017-01-23T01:00:43.991Z,73533
2017-01-23T01:00:52.666Z,73535
2017-01-23T01:01:01.338Z,73538
2017-01-23T01:01:10.012Z,73531
2017-01-23T01:01:18.679Z,73536
2017-01-23T01:01:27.363Z,73535
2017-01-23T01:01:36.028Z,73536
2017-01-23T01:01:44.700Z,73536
2017-01-23T01:01:53.404Z,73532
2017-01-23T01:02:02.070Z,73532
2017-01-23T01:02:10.735Z,73536
2017-01-23T01:02:19.409Z,73535
2017-01-23T01:02:28.053Z,73532
2017-01-23T01:02:36.730Z,73533
2017-01-23T01:02:45.405Z,73536
2017-01-23T01:02:54.077Z,73536
2017-01-23T01:03:02.741Z,73532
2017-01-23T01:03:11.409Z,73533
2017-01-23T01:03:20.083Z,73537
2017-01-23T01:03:28.769Z,73536
2017-01-23T01:03:37.449Z,73534
2017-01-23T01:03:46.137Z,73536
2017-01-23T01:03:54.835Z,73532
2017-01-23T01:04:03.497Z,73535
2017-01-23T01:04:12.182Z,73539
2017-01-23T01:04:20.881Z,73535
2017-01-23T01:04:29.566Z,73534
2017-01-23T01:04:38.245Z,73532
2017-01-23T01:04:46.943Z,73533
2017-01-23T01:04:55.640Z,73532
2017-01-23T01:05:04.320Z,73530
2017-01-23T01:05:12.976Z,73532
2017-01-23T01:05:21.662Z,73532
2017-01-23T01:05:30.334Z,73531
2017-01-23T01:05:39.013Z,73531
2017-01-23T01:05:47.668Z,73530
2017-01-23T01:05:56.339Z,73531
2017-01-23T01:06:05.008Z,73532
2017-01-23T01:06:13.673Z,73530
2017-01-23T01:06:22.379Z,73533
2017-01-23T01:06:31.045Z,73535
2017-01-23T01:06:39.712Z,73532
2017-01-23T01:06:48.388Z,73530
2017-01-23T01:06:57.057Z,73528
2017-01-23T01:07:05.723Z,73530
2017-01-23T01:07:14.400Z,73531
2017-01-23T01:07:23.073Z,73530
2017-01-23T01:07:31.742Z,73534
2017-01-23T01:07:40.416Z,73536
2017-01-23T01:07:49.084Z,73531
2017-01-23T01:07:57.746Z,73531
2017-01-23T01:08:06.451Z,73531
2017-01-23T01:08:15.092Z,73532
2017-01-23T01:08:23.756Z,73531
2017-01-23T01:08:32.432Z,73531
2017-01-23T01:08:41.105Z,73532
2017-01-23T01:08:49.793Z,73533
2017-01-23T01:08:58.452Z,73532
2017-01-23T01:09:07.120Z,73529
2017-01-23T01:09:15.777Z,73532
2017-01-23T01:09:24.436Z,73529
2017-01-23T01:09:33.094Z,73531
2017-01-23T01:09:41.762Z,73529
2017-01-23T01:09:50.448Z,73531
2017-01-23T01:09:59.125Z,73527
2017-01-23T01:10:07.808Z,73532
2017-01-23T01:10:16.491Z,73530
2017-01-23T01:10:25.530Z,73530
2017-01-23T01:10:34.204Z,73531
2017-01-23T01:10:42.885Z,73535
2017-01-23T01:10:51.581Z,73531
2017-01-23T01:11:00.248Z,73529
2017-01-23T01:11:08.907Z,73530
2017-01-23T01:11:17.581Z,73529
2017-01-23T01:11:26.258Z,73532
2017-01-23T01:11:35.314Z,73530
2017-01-23T01:11:43.981Z,73532
2017-01-23T01:11:52.669Z,73530
2017-01-23T01:12:01.355Z,73529
2017-01-23T01:12:10.031Z,73530
2017-01-23T01:12:18.696Z,73528
2017-01-23T01:12:27.354Z,73526
2017-01-23T01:12:36.032Z,73532
2017-01-23T01:12:44.705Z,73533
2017-01-23T01:12:53.390Z,73533
2017-01-23T01:13:02.053Z,73533
2017-01-23T01:13:10.698Z,73533
2017-01-23T01:13:19.378Z,73534
2017-01-23T01:13:28.429Z,73531
2017-01-23T01:13:37.103Z,73529
2017-01-23T01:13:46.164Z,73530
2017-01-23T01:13:54.847Z,73534
2017-01-23T01:14:03.523Z,73531
2017-01-23T01:14:12.179Z,73531
2017-01-23T01:14:20.852Z,73527
2017-01-23T01:14:29.546Z,73530
2017-01-23T01:14:38.213Z,73528
2017-01-23T01:14:46.891Z,73530
2017-01-23T01:14:55.560Z,73525
2017-01-23T01:15:04.607Z,73531
2017-01-23T01:15:13.296Z,73528
2017-01-23T01:15:21.956Z,73531
2017-01-23T01:15:30.632Z,73531
2017-01-23T01:15:39.320Z,73526
2017-01-23T01:15:47.996Z,73525
2017-01-23T01:15:56.669Z,73528
2017-01-23T01:16:05.337Z,73527
2017-01-23T01:16:14.016Z,73529
2017-01-23T01:16:22.684Z,73526
2017-01-23T01:16:31.373Z,73528
2017-01-23T01:16:40.046Z,73527
2017-01-23T01:16:48.723Z,73528
2017-01-23T01:16:57.405Z,73525
2017-01-23T01:17:06.059Z,73524
2017-01-23T01:17:14.729Z,73527
2017-01-23T01:17:23.397Z,73527
2017-01-23T01:17:32.080Z,73523
2017-01-23T01:17:40.790Z,73525
2017-01-23T01:17:49.453Z,73527
2017-01-23T01:17:58.119Z,73528
2017-01-23T01:18:06.768Z,73530
2017-01-23T01:18:15.447Z,73528
2017-01-23T01:18:24.162Z,73527
2017-01-23T01:18:32.829Z,73531
2017-01-23T01:18:41.493Z,73527
2017-01-23T01:18:50.168Z,73528
2017-01-23T01:18:58.844Z,73525
2017-01-23T01:19:07.491Z,73526
2017-01-23T01:19:16.166Z,73529
2017-01-23T01:19:24.848Z,73528
2017-01-23T01:19:33.493Z,73528
2017-01-23T01:19:42.160Z,73525
2017-01-23T01:19:50.837Z,73526
2017-01-23T01:19:59.496Z,73528
2017-01-23T01:20:08.166Z,73530
2017-01-23T01:20:16.849Z,73528
2017-01-23T01:20:25.508Z,73527
2017-01-23T01:20:34.199Z,73526
2017-01-23T01:20:42.875Z,73528
2017-01-23T01:20:51.521Z,73528
2017-01-23T01:21:00.186Z,73526
2017-01-23T01:21:08.841Z,73524
2017-01-23T01:21:17.524Z,73527
2017-01-23T01:21:26.206Z,73527
2017-01-23T01:21:34.849Z,73528
2017-01-23T01:21:43.528Z,73525
2017-01-23T01:21:52.170Z,73529
2017-01-23T01:22:00.818Z,73524
2017-01-23T01:22:09.509Z,73525
2017-01-23T01:22:18.181Z,73523
2017-01-23T01:22:26.866Z,73524
2017-01-23T01:22:35.531Z,73528
2017-01-23T01:22:44.196Z,73526
2017-01-23T01:22:52.865Z,73528
2017-01-23T01:23:01.539Z,73522
2017-01-23T01:23:10.221Z,73523
2017-01-23T01:23:18.875Z,73523
2017-01-23T01:23:27.585Z,73525
2017-01-23T01:23:36.272Z,73520
2017-01-23T01:23:44.938Z,73527
2017-01-23T01:23:53.621Z,73523
2017-01-23T01:24:02.652Z,73522
2017-01-23T01:24:11.323Z,73528
2017-01-23T01:24:19.993Z,73527
2017-01-23T01:24:28.678Z,73526
2017-01-23T01:24:37.350Z,73527
2017-01-23T01:24:46.013Z,73523
2017-01-23T01:24:54.667Z,73523
2017-01-23T01:25:03.323Z,73522
2017-01-23T01:25:12.002Z,73523
2017-01-23T01:25:20.663Z,73520
2017-01-23T01:25:29.337Z,73523
2017-01-23T01:25:38.000Z,73519
2017-01-23T01:25:46.681Z,73520
2017-01-23T01:25:55.354Z,73522
2017-01-23T01:26:04.017Z,73523
2017-01-23T01:26:12.700Z,73523
2017-01-23T01:26:21.362Z,73522
2017-01-23T01:26:30.065Z,73526
2017-01-23T01:26:38.705Z,73524
2017-01-23T01:26:47.391Z,73521
2017-01-23T01:26:56.068Z,73519
2017-01-23T01:27:04.735Z,73523
2017-01-23T01:27:13.410Z,73521
2017-01-23T01:27:22.066Z,73521
2017-01-23T01:27:30.743Z,73522
2017-01-23T01:27:39.436Z,73520
2017-01-23T01:27:48.115Z,73520
2017-01-23T01:27:56.782Z,73519
2017-01-23T01:28:05.449Z,73520
2017-01-23T01:28:14.131Z,73521
2017-01-23T01:28:22.792Z,73521
2017-01-23T01:28:31.453Z,73526
2017-01-23T01:28:40.141Z,73520
2017-01-23T01:28:48.822Z,73524
2017-01-23T01:28:57.498Z,73525
2017-01-23T01:29:06.167Z,73524
2017-01-23T01:29:14.840Z,73522
2017-01-23T01:29:23.500Z,73524
2017-01-23T01:29:32.183Z,73522
2017-01-23T01:29:40.865Z,73524
2017-01-23T01:29:49.518Z,73525
2017-01-23T01:29:58.182Z,73522
2017-01-23T01:30:06.831Z,73523
2017-01-23T01:30:15.505Z,73525
2017-01-23T01:30:24.231Z,73525
2017-01-23T01:30:32.893Z,73521
2017-01-23T01:30:41.556Z,73525
2017-01-23T01:30:50.226Z,73525
2017-01-23T01:30:58.894Z,73525
2017-01-23T01:31:07.584Z,73527
2017-01-23T01:31:16.263Z,73524
2017-01-23T01:31:24.935Z,73521
2017-01-23T01:31:33.608Z,73526
2017-01-23T01:31:42.283Z,73527
2017-01-23T01:31:50.953Z,73523
2017-01-23T01:31:59.619Z,73522
2017-01-23T01:32:08.302Z,73523
2017-01-23T01:32:16.970Z,73526
2017-01-23T01:32:25.643Z,73523
2017-01-23T01:32:34.335Z,73523
2017-01-23T01:32:43.016Z,73526
2017-01-23T01:32:51.685Z,73525
2017-01-23T01:33:00.348Z,73525
2017-01-23T01:33:09.019Z,73528
2017-01-23T01:33:17.680Z,73530
2017-01-23T01:33:26.366Z,73525
2017-01-23T01:33:35.033Z,73523
2017-01-23T01:33:43.745Z,73525
2017-01-23T01:33:52.411Z,73527
2017-01-23T01:34:01.084Z,73526
2017-01-23T01:34:09.770Z,73524
2017-01-23T01:34:18.433Z,73523
2017-01-23T01:34:27.101Z,73527
2017-01-23T01:34:35.769Z,73525
2017-01-23T01:34:44.451Z,73523
2017-01-23T01:34:53.126Z,73525
2017-01-23T01:35:01.801Z,73525
2017-01-23T01:35:10.469Z,73519
2017-01-23T01:35:19.134Z,73524
2017-01-23T01:35:27.814Z,73522
2017-01-23T01:35:36.492Z,73520
2017-01-23T01:35:45.168Z,73524
2017-01-23T01:35:53.853Z,73520
2017-01-23T01:36:02.524Z,73522
2017-01-23T01:36:11.195Z,73519
2017-01-23T01:36:19.870Z,73518
2017-01-23T01:36:28.535Z,73525
2017-01-23T01:36:37.212Z,73521
2017-01-23T01:36:45.879Z,73519
2017-01-23T01:36:54.553Z,73525
2017-01-23T01:37:03.212Z,73524
2017-01-23T01:37:11.870Z,73521
2017-01-23T01:37:20.534Z,73524
2017-01-23T01:37:29.223Z,73524
2017-01-23T01:37:37.906Z,73520
2017-01-23T01:37:46.564Z,73522
2017-01-23T01:37:55.224Z,73520
2017-01-23T01:38:03.892Z,73521
2017-01-23T01:38:12.567Z,73520
2017-01-23T01:38:21.258Z,73520
2017-01-23T01:38:29.943Z,73520
2017-01-23T01:38:39.047Z,73520
2017-01-23T01:38:47.713Z,73524
2017-01-23T01:38:56.400Z,73518
2017-01-23T01:39:05.063Z,73517
2017-01-23T01:39:13.716Z,73522
2017-01-23T01:39:22.371Z,73520
2017-01-23T01:39:31.041Z,73523
2017-01-23T01:39:39.722Z,73521
2017-01-23T01:39:48.380Z,73522
2017-01-23T01:39:57.071Z,73523
2017-01-23T01:40:05.733Z,73520
2017-01-23T01:40:14.386Z,73522
2017-01-23T01:40:23.066Z,73524
2017-01-23T01:40:31.741Z,73520
2017-01-23T01:40:40.405Z,73518
2017-01-23T01:40:49.059Z,73518
2017-01-23T01:40:57.731Z,73521
2017-01-23T01:41:06.415Z,73522
2017-01-23T01:41:15.070Z,73521
2017-01-23T01:41:23.741Z,73517
2017-01-23T01:41:32.435Z,73521
2017-01-23T01:41:41.110Z,73522
2017-01-23T01:41:49.791Z,73520
2017-01-23T01:41:58.465Z,73522
2017-01-23T01:42:07.508Z,73521
2017-01-23T01:42:16.161Z,73521
2017-01-23T01:42:24.838Z,73520
2017-01-23T01:42:33.507Z,73521
2017-01-23T01:42:42.160Z,73523
2017-01-23T01:42:50.857Z,73520
2017-01-23T01:42:59.522Z,73518
2017-01-23T01:43:08.232Z,73519
2017-01-23T01:43:16.904Z,73521
2017-01-23T01:43:25.559Z,73518
2017-01-23T01:43:34.235Z,73523
2017-01-23T01:43:42.903Z,73522
2017-01-23T01:43:51.558Z,73520
2017-01-23T01:44:00.219Z,73525
2017-01-23T01:44:08.881Z,73521
2017-01-23T01:44:17.562Z,73521
2017-01-23T01:44:26.220Z,73520
2017-01-23T01:44:34.887Z,73523
2017-01-23T01:44:43.580Z,73519
2017-01-23T01:44:52.268Z,73521
2017-01-23T01:45:00.930Z,73520
2017-01-23T01:45:09.620Z,73522
2017-01-23T01:45:18.291Z,73522
2017-01-23T01:45:26.972Z,73523
2017-01-23T01:45:35.658Z,73517
2017-01-23T01:45:44.329Z,73519
2017-01-23T01:45:53.010Z,73520
2017-01-23T01:46:01.712Z,73515
2017-01-23T01:46:10.363Z,73517
2017-01-23T01:46:19.027Z,73523
2017-01-23T01:46:27.695Z,73520
2017-01-23T01:46:36.358Z,73523
2017-01-23T01:46:45.006Z,73518
2017-01-23T01:46:53.683Z,73519
2017-01-23T01:47:02.348Z,73521
2017-01-23T01:47:11.027Z,73523
2017-01-23T01:47:19.688Z,73518
2017-01-23T01:47:28.358Z,73518
2017-01-23T01:47:37.032Z,73521
2017-01-23T01:47:45.694Z,73522
2017-01-23T01:47:54.345Z,73519
2017-01-23T01:48:03.027Z,73516
2017-01-23T01:48:11.702Z,73519
2017-01-23T01:48:20.377Z,73522
2017-01-23T01:48:29.050Z,73522
2017-01-23T01:48:37.757Z,73521
2017-01-23T01:48:46.430Z,73519
2017-01-23T01:48:55.090Z,73524
2017-01-23T01:49:03.761Z,73518
2017-01-23T01:49:12.430Z,73521
2017-01-23T01:49:21.105Z,73522
2017-01-23T01:49:29.771Z,73520
2017-01-23T01:49:38.437Z,73516
2017-01-23T01:49:47.104Z,73519
2017-01-23T01:49:55.776Z,73517
2017-01-23T01:50:04.418Z,73518
2017-01-23T01:50:13.090Z,73520
2017-01-23T01:50:21.785Z,73520
2017-01-23T01:50:30.459Z,73517
2017-01-23T01:50:39.119Z,73523
2017-01-23T01:50:47.814Z,73521
2017-01-23T01:50:56.470Z,73521
2017-01-23T01:51:05.136Z,73518
2017-01-23T01:51:13.815Z,73521
2017-01-23T01:51:22.483Z,73518
2017-01-23T01:51:31.172Z,73518
2017-01-23T01:51:39.847Z,73514
2017-01-23T01:51:48.519Z,73515